createdAt,value
2018-09-11T00:01:15.289Z,66.72
2018-09-11T00:03:42.526Z,66.59
2018-09-11T00:06:09.785Z,66.70
2018-09-11T00:08:36.970Z,66.37
2018-09-11T00:11:04.295Z,66.90
2018-09-11T00:13:31.523Z,66.67
2018-09-11T00:15:58.765Z,67.41
2018-09-11T00:18:26.199Z,68.07
2018-09-11T00:20:53.491Z,68.48
2018-09-11T00:23:20.663Z,68.44
2018-09-11T00:25:47.966Z,68.69
2018-09-11T00:28:15.206Z,68.33
2018-09-11T00:30:42.473Z,68.64
2018-09-11T00:33:09.768Z,68.11
2018-09-11T00:35:37.032Z,67.94
2018-09-11T00:38:04.253Z,68.76
2018-09-11T00:40:31.503Z,69.10
2018-09-11T00:42:58.752Z,68.95
2018-09-11T00:45:26.052Z,69.27
2018-09-11T00:47:53.302Z,68.87
2018-09-11T00:50:20.553Z,69.06
2018-09-11T00:52:47.795Z,69.70
2018-09-11T00:55:15.028Z,69.09
2018-09-11T00:57:42.297Z,69.15
2018-09-11T01:00:09.589Z,69.11
2018-09-11T01:02:36.862Z,69.87
2018-09-11T01:05:04.096Z,70.33
2018-09-11T01:07:33.652Z,69.81
2018-09-11T01:10:01.271Z,69.82
2018-09-11T01:12:28.460Z,69.64
2018-09-11T01:14:55.753Z,70.52
2018-09-11T01:17:22.965Z,70.56
2018-09-11T01:19:50.150Z,70.31
2018-09-11T01:22:17.421Z,71.16
2018-09-11T01:24:44.645Z,71.53
2018-09-11T01:27:11.883Z,71.56
2018-09-11T01:29:39.126Z,71.25
2018-09-11T01:32:06.433Z,71.69
2018-09-11T01:34:33.646Z,71.97
2018-09-11T01:37:00.927Z,71.78
2018-09-11T01:39:28.170Z,72.58
2018-09-11T01:41:55.432Z,72.52
2018-09-11T01:44:22.676Z,72.02
2018-09-11T01:46:49.845Z,72.35
2018-09-11T01:49:17.152Z,72.44
2018-09-11T01:51:44.329Z,72.43
2018-09-11T01:54:11.583Z,73.04
2018-09-11T01:56:38.811Z,72.92
2018-09-11T01:59:06.018Z,72.96
2018-09-11T02:01:33.253Z,73.35
2018-09-11T02:04:00.465Z,73.46
2018-09-11T02:06:27.669Z,73.78
2018-09-11T02:08:54.878Z,74.51
2018-09-11T02:11:22.143Z,73.68
2018-09-11T02:13:49.662Z,73.05
2018-09-11T02:16:16.850Z,73.83
2018-09-11T02:18:44.065Z,74.39
2018-09-11T02:21:11.253Z,73.82
2018-09-11T02:23:38.441Z,73.71
2018-09-11T02:26:05.757Z,75.07
2018-09-11T02:28:32.952Z,75.59
2018-09-11T02:31:00.113Z,75.22
2018-09-11T02:33:27.340Z,75.00
2018-09-11T02:35:54.825Z,74.19
2018-09-11T02:38:21.913Z,74.52
2018-09-11T02:40:49.131Z,74.97
2018-09-11T02:43:16.392Z,75.14
2018-09-11T02:45:43.620Z,75.90
2018-09-11T02:48:10.887Z,76.65
2018-09-11T02:50:38.093Z,75.94
2018-09-11T02:53:05.405Z,76.65
2018-09-11T02:55:32.699Z,75.81
2018-09-11T02:57:59.919Z,76.57
2018-09-11T03:00:27.191Z,75.69
2018-09-11T03:02:54.416Z,76.55
2018-09-11T03:05:21.638Z,76.40
2018-09-11T03:07:48.872Z,77.07
2018-09-11T03:10:16.141Z,76.28
2018-09-11T03:12:43.340Z,76.65
2018-09-11T03:15:10.563Z,76.49
2018-09-11T03:17:37.850Z,76.78
2018-09-11T03:20:05.107Z,77.81
2018-09-11T03:22:32.319Z,77.78
2018-09-11T03:24:59.535Z,76.97
2018-09-11T03:27:26.861Z,77.40
2018-09-11T03:29:54.011Z,77.46
2018-09-11T03:32:21.242Z,78.72
2018-09-11T03:34:48.460Z,78.49
2018-09-11T03:37:15.707Z,78.70
2018-09-11T03:39:42.915Z,78.80
2018-09-11T03:42:10.139Z,78.62
2018-09-11T03:44:37.366Z,79.13
2018-09-11T03:47:04.744Z,78.89
2018-09-11T03:49:31.974Z,78.32
2018-09-11T03:51:59.230Z,78.26
2018-09-11T03:54:26.553Z,77.97
2018-09-11T03:56:53.777Z,78.92
2018-09-11T03:59:21.012Z,79.11
2018-09-11T04:01:48.222Z,79.00
2018-09-11T04:04:15.459Z,79.34
2018-09-11T04:06:42.674Z,79.12
2018-09-11T04:09:11.413Z,79.08
2018-09-11T04:11:41.659Z,79.04
2018-09-11T04:14:08.908Z,78.89
2018-09-11T04:16:36.194Z,79.61
2018-09-11T04:19:03.415Z,79.02
2018-09-11T04:21:30.647Z,79.40
2018-09-11T04:23:58.011Z,79.21
2018-09-11T04:26:25.296Z,80.16
2018-09-11T04:28:52.541Z,80.18
2018-09-11T04:31:19.859Z,80.71
2018-09-11T04:33:47.168Z,80.36
2018-09-11T04:36:14.517Z,79.75
2018-09-11T04:38:41.739Z,79.55
2018-09-11T04:41:09.056Z,80.45
2018-09-11T04:43:36.342Z,80.74
2018-09-11T04:46:03.550Z,81.31
2018-09-11T04:48:30.760Z,81.30
2018-09-11T04:50:58.060Z,81.56
2018-09-11T04:53:25.251Z,81.23
2018-09-11T04:55:52.483Z,81.11
2018-09-11T04:58:19.726Z,81.76
2018-09-11T05:00:47.037Z,81.11
2018-09-11T05:03:14.557Z,81.63
2018-09-11T05:05:41.769Z,80.60
2018-09-11T05:08:09.033Z,80.65
2018-09-11T05:10:36.271Z,80.41
2018-09-11T05:13:03.460Z,80.84
2018-09-11T05:15:30.757Z,80.82
2018-09-11T05:17:57.989Z,80.51
2018-09-11T05:20:25.236Z,80.13
2018-09-11T05:22:52.519Z,79.66
2018-09-11T05:25:19.775Z,80.00
2018-09-11T05:27:46.985Z,79.55
2018-09-11T05:30:14.212Z,79.78
2018-09-11T05:32:41.462Z,80.49
2018-09-11T05:35:08.721Z,79.77
2018-09-11T05:37:35.932Z,80.11
2018-09-11T05:40:03.196Z,80.02
2018-09-11T05:42:30.465Z,80.22
2018-09-11T05:44:57.649Z,79.98
2018-09-11T05:47:24.891Z,79.40
2018-09-11T05:49:52.087Z,79.28
2018-09-11T05:52:19.377Z,80.13
2018-09-11T05:54:46.623Z,78.77
2018-09-11T05:57:13.883Z,77.17
2018-09-11T05:59:41.102Z,76.38
2018-09-11T06:02:08.514Z,76.94
2018-09-11T06:04:35.766Z,77.32
2018-09-11T06:07:03.122Z,76.60
2018-09-11T06:09:30.397Z,74.79
2018-09-11T06:11:57.599Z,74.09
2018-09-11T06:14:24.786Z,72.91
2018-09-11T06:16:52.022Z,73.23
2018-09-11T06:19:19.257Z,73.57
2018-09-11T06:21:46.457Z,73.46
2018-09-11T06:24:13.668Z,75.00
2018-09-11T06:26:40.822Z,74.90
2018-09-11T06:29:08.078Z,73.53
2018-09-11T06:31:35.277Z,72.85
2018-09-11T06:34:02.715Z,72.33
2018-09-11T06:36:29.962Z,71.56
2018-09-11T06:38:57.199Z,72.13
2018-09-11T06:41:24.480Z,71.09
2018-09-11T06:43:51.752Z,69.99
2018-09-11T06:46:18.955Z,68.98
2018-09-11T06:48:46.217Z,66.87
2018-09-11T06:51:13.447Z,65.72
2018-09-11T06:53:40.614Z,64.28
2018-09-11T06:56:07.902Z,63.98
2018-09-11T06:58:35.130Z,61.98
2018-09-11T07:01:02.339Z,58.85
2018-09-11T07:03:29.556Z,56.83
2018-09-11T07:05:56.816Z,56.02
2018-09-11T07:08:24.042Z,55.19
2018-09-11T07:10:51.292Z,52.57
2018-09-11T07:13:18.503Z,53.59
2018-09-11T07:15:45.786Z,52.69
2018-09-11T07:18:12.942Z,50.29
2018-09-11T07:20:40.157Z,50.23
2018-09-11T07:23:07.368Z,49.15
2018-09-11T07:25:34.565Z,49.05
2018-09-11T07:28:01.776Z,48.33
2018-09-11T07:30:29.092Z,47.36
2018-09-11T07:32:56.283Z,47.64
2018-09-11T07:35:23.518Z,47.53
2018-09-11T07:37:50.884Z,48.11
2018-09-11T07:40:18.132Z,48.82
2018-09-11T07:42:45.334Z,48.22
2018-09-11T07:45:12.584Z,48.20
2018-09-11T07:47:41.534Z,46.97
2018-09-11T07:50:08.803Z,47.09
2018-09-11T07:52:36.106Z,46.97
2018-09-11T07:55:03.399Z,46.56
2018-09-11T07:57:30.645Z,47.21
2018-09-11T07:59:57.951Z,45.46
2018-09-11T08:02:25.152Z,45.42
2018-09-11T08:04:52.409Z,46.32
2018-09-11T08:07:19.683Z,46.52
2018-09-11T08:09:46.917Z,47.27
2018-09-11T08:12:14.158Z,47.50
2018-09-11T08:14:41.585Z,46.42
2018-09-11T08:17:08.794Z,45.90
2018-09-11T08:19:36.068Z,44.13
2018-09-11T08:22:03.233Z,43.69
2018-09-11T08:24:30.429Z,44.41
2018-09-11T08:26:57.694Z,44.78
2018-09-11T08:29:24.986Z,44.03
2018-09-11T08:31:52.216Z,45.10
2018-09-11T08:34:19.463Z,44.19
2018-09-11T08:36:46.694Z,44.23
2018-09-11T08:39:13.938Z,44.76
2018-09-11T08:41:41.165Z,45.95
2018-09-11T08:44:08.474Z,46.60
2018-09-11T08:46:35.951Z,46.23
2018-09-11T08:49:03.229Z,45.39
2018-09-11T08:51:30.436Z,44.25
2018-09-11T08:53:57.681Z,44.48
2018-09-11T08:56:24.907Z,44.75
2018-09-11T08:58:52.130Z,45.04
2018-09-11T09:01:19.404Z,44.41
2018-09-11T09:03:46.658Z,44.35
2018-09-11T09:06:13.927Z,45.05
2018-09-11T09:08:41.148Z,44.47
2018-09-11T09:11:08.367Z,43.47
2018-09-11T09:13:35.578Z,45.45
2018-09-11T09:16:02.877Z,43.13
2018-09-11T09:18:30.098Z,42.67
2018-09-11T09:20:57.463Z,42.96
2018-09-11T09:23:24.684Z,42.04
2018-09-11T09:25:51.914Z,42.88
2018-09-11T09:28:19.195Z,42.83
2018-09-11T09:30:46.418Z,40.94
2018-09-11T09:33:13.722Z,40.11
2018-09-11T09:35:40.879Z,39.65
2018-09-11T09:38:08.890Z,40.61
2018-09-11T09:40:36.098Z,40.99
2018-09-11T09:43:03.361Z,39.20
2018-09-11T09:45:30.614Z,39.42
2018-09-11T09:47:57.866Z,39.17
2018-09-11T09:50:25.095Z,39.12
2018-09-11T09:52:52.371Z,38.10
2018-09-11T09:55:19.702Z,38.71
2018-09-11T09:57:46.935Z,38.49
2018-09-11T10:00:18.904Z,37.63
2018-09-11T10:02:46.239Z,37.04
2018-09-11T10:05:13.513Z,37.04
2018-09-11T10:07:40.734Z,37.50
2018-09-11T10:10:08.003Z,37.14
2018-09-11T10:12:35.279Z,36.72
2018-09-11T10:15:02.522Z,35.94
2018-09-11T10:17:29.824Z,35.88
2018-09-11T10:19:57.252Z,35.72
2018-09-11T10:22:24.508Z,36.74
2018-09-11T10:24:51.808Z,34.19
2018-09-11T10:27:19.098Z,34.13
2018-09-11T10:29:46.303Z,33.73
2018-09-11T10:32:13.539Z,33.71
2018-09-11T10:34:40.771Z,32.29
2018-09-11T10:37:08.048Z,31.51
2018-09-11T10:39:35.369Z,31.42
2018-09-11T10:42:02.648Z,32.44
2018-09-11T10:44:29.944Z,31.60
2018-09-11T10:46:58.262Z,31.01
2018-09-11T10:49:25.506Z,30.48
2018-09-11T10:51:52.768Z,30.34
2018-09-11T10:54:20.044Z,30.36
2018-09-11T10:56:47.336Z,32.30
2018-09-11T10:59:14.637Z,31.62
2018-09-11T11:01:41.896Z,33.01
2018-09-11T11:04:09.251Z,34.07
2018-09-11T11:06:36.478Z,33.62
2018-09-11T11:09:05.970Z,34.40
2018-09-11T11:11:33.203Z,33.93
2018-09-11T11:14:00.508Z,32.92
2018-09-11T11:16:27.752Z,32.14
2018-09-11T11:18:55.017Z,30.83
2018-09-11T11:21:22.213Z,30.67
2018-09-11T11:23:49.527Z,30.89
2018-09-11T11:26:16.739Z,30.68
2018-09-11T11:28:44.001Z,30.89
2018-09-11T11:31:11.219Z,30.65
2018-09-11T11:33:38.508Z,30.96
2018-09-11T11:36:07.038Z,31.18
2018-09-11T11:38:34.192Z,31.41
2018-09-11T11:41:01.364Z,29.24
2018-09-11T11:43:28.643Z,30.66
2018-09-11T11:45:55.840Z,31.02
2018-09-11T11:48:23.225Z,30.81
2018-09-11T11:50:50.368Z,29.30
2018-09-11T11:53:17.571Z,29.76
2018-09-11T11:55:44.903Z,29.47
2018-09-11T11:58:12.126Z,28.97
2018-09-11T12:00:39.451Z,29.34
2018-09-11T12:03:07.414Z,28.87
2018-09-11T12:05:34.667Z,28.85
2018-09-11T12:08:01.922Z,29.10
2018-09-11T12:10:29.221Z,28.97
2018-09-11T12:12:56.436Z,28.14
2018-09-11T12:15:23.651Z,29.26
2018-09-11T12:17:50.962Z,28.17
2018-09-11T12:20:18.207Z,29.33
2018-09-11T12:22:45.505Z,28.03
2018-09-11T12:25:12.802Z,27.47
2018-09-11T12:27:40.066Z,27.02
2018-09-11T12:30:07.363Z,28.25
2018-09-11T12:32:34.690Z,27.42
2018-09-11T12:35:01.971Z,28.98
2018-09-11T12:37:29.184Z,29.17
2018-09-11T12:39:56.446Z,28.86
2018-09-11T12:42:23.727Z,27.81
2018-09-11T12:44:51.013Z,27.48
2018-09-11T12:47:18.487Z,28.43
2018-09-11T12:49:45.578Z,26.75
2018-09-11T12:52:12.841Z,27.30
2018-09-11T12:54:40.097Z,27.23
2018-09-11T12:57:07.414Z,26.61
2018-09-11T12:59:34.703Z,27.16
2018-09-11T13:02:01.998Z,26.97
2018-09-11T13:04:29.284Z,26.55
2018-09-11T13:06:56.632Z,26.65
2018-09-11T13:09:24.045Z,25.38
2018-09-11T13:11:51.517Z,24.48
2018-09-11T13:14:20.426Z,25.52
2018-09-11T13:16:47.624Z,24.92
2018-09-11T13:19:14.833Z,24.57
2018-09-11T13:21:42.157Z,24.22
2018-09-11T13:24:09.426Z,25.27
2018-09-11T13:26:36.703Z,24.45
2018-09-11T13:29:03.952Z,25.36
2018-09-11T13:31:31.221Z,25.12
2018-09-11T13:33:58.621Z,25.48
2018-09-11T13:36:25.859Z,24.61
2018-09-11T13:38:53.185Z,24.30
2018-09-11T13:41:20.457Z,24.73
2018-09-11T13:43:48.269Z,24.25
2018-09-11T13:46:15.546Z,25.25
2018-09-11T13:48:42.742Z,23.45
2018-09-11T13:51:09.996Z,25.18
2018-09-11T13:53:37.303Z,24.48
2018-09-11T13:56:04.637Z,25.10
2018-09-11T13:58:31.911Z,25.41
2018-09-11T14:00:59.161Z,25.79
2018-09-11T14:03:26.456Z,25.35
2018-09-11T14:05:53.709Z,25.05
2018-09-11T14:08:21.251Z,23.82
2018-09-11T14:10:48.534Z,24.71
2018-09-11T14:13:15.737Z,25.57
2018-09-11T14:15:42.973Z,25.73
2018-09-11T14:18:10.209Z,25.01
2018-09-11T14:20:37.485Z,25.86
2018-09-11T14:23:04.734Z,25.84
2018-09-11T14:25:35.046Z,25.58
2018-09-11T14:28:02.398Z,25.38
2018-09-11T14:30:29.720Z,25.93
2018-09-11T14:32:57.017Z,26.79
2018-09-11T14:35:24.342Z,25.35
2018-09-11T14:37:51.617Z,24.30
2018-09-11T14:40:18.943Z,25.77
2018-09-11T14:42:46.268Z,26.01
2018-09-11T14:45:13.504Z,26.29
2018-09-11T14:47:42.800Z,27.00
2018-09-11T14:50:10.859Z,26.41
2018-09-11T14:52:38.443Z,27.00
2018-09-11T14:55:05.826Z,26.64
2018-09-11T14:57:33.424Z,27.45
2018-09-11T15:00:00.739Z,26.41
2018-09-11T15:02:28.098Z,25.75
2018-09-11T15:04:55.645Z,25.42
2018-09-11T15:07:23.160Z,26.71
2018-09-11T15:09:50.396Z,25.83
2018-09-11T15:12:17.654Z,26.08
2018-09-11T15:14:44.932Z,25.28
2018-09-11T15:17:12.195Z,25.75
2018-09-11T15:19:39.503Z,25.24
2018-09-11T15:22:06.802Z,24.10
2018-09-11T15:24:34.031Z,24.88
2018-09-11T15:27:01.241Z,24.31
2018-09-11T15:29:28.467Z,25.26
2018-09-11T15:31:55.644Z,25.57
2018-09-11T15:34:22.974Z,26.09
2018-09-11T15:36:50.253Z,26.50
2018-09-11T15:39:17.469Z,26.37
2018-09-11T15:41:44.748Z,25.98
2018-09-11T15:44:12.142Z,25.07
2018-09-11T15:46:39.428Z,24.98
2018-09-11T15:49:06.703Z,26.53
2018-09-11T15:51:34.186Z,26.55
2018-09-11T15:54:01.442Z,26.89
2018-09-11T15:56:28.704Z,26.35
2018-09-11T15:58:55.913Z,26.32
2018-09-11T16:01:23.178Z,26.88
2018-09-11T16:03:50.402Z,26.20
2018-09-11T16:06:17.782Z,26.69
2018-09-11T16:08:45.072Z,26.49
2018-09-11T16:11:12.378Z,27.38
2018-09-11T16:13:39.676Z,26.88
2018-09-11T16:16:06.897Z,26.80
2018-09-11T16:18:34.182Z,28.43
2018-09-11T16:21:01.558Z,28.61
2018-09-11T16:23:28.790Z,28.86
2018-09-11T16:25:56.095Z,29.12
2018-09-11T16:28:23.353Z,30.14
2018-09-11T16:30:50.528Z,29.42
2018-09-11T16:33:17.796Z,29.55
2018-09-11T16:35:45.088Z,29.91
2018-09-11T16:38:12.316Z,30.33
2018-09-11T16:40:39.738Z,30.40
2018-09-11T16:43:07.045Z,31.00
2018-09-11T16:45:34.297Z,31.48
2018-09-11T16:48:01.559Z,31.80
2018-09-11T16:50:28.873Z,32.68
2018-09-11T16:52:56.102Z,32.69
2018-09-11T16:55:23.367Z,33.59
2018-09-11T16:57:50.696Z,34.16
2018-09-11T17:00:17.910Z,33.92
2018-09-11T17:02:45.248Z,34.93
2018-09-11T17:05:12.532Z,34.48
2018-09-11T17:07:39.813Z,35.39
2018-09-11T17:10:07.155Z,36.53
2018-09-11T17:12:34.378Z,36.81
2018-09-11T17:15:01.585Z,37.50
2018-09-11T17:17:28.838Z,37.21
2018-09-11T17:19:56.144Z,37.21
2018-09-11T17:22:23.365Z,37.98
2018-09-11T17:24:51.389Z,38.84
2018-09-11T17:27:18.695Z,39.20
2018-09-11T17:29:45.854Z,39.39
2018-09-11T17:32:13.111Z,39.79
2018-09-11T17:34:40.343Z,39.28
2018-09-11T17:37:07.617Z,39.70
2018-09-11T17:39:34.881Z,39.61
2018-09-11T17:42:02.211Z,39.90
2018-09-11T17:44:29.465Z,41.02
2018-09-11T17:46:56.805Z,41.63
2018-09-11T17:49:24.057Z,41.85
2018-09-11T17:51:51.336Z,42.76
2018-09-11T17:54:18.545Z,43.06
2018-09-11T17:56:45.817Z,43.02
2018-09-11T17:59:13.028Z,43.25
2018-09-11T18:01:40.265Z,42.77
2018-09-11T18:04:07.541Z,43.14
2018-09-11T18:06:34.827Z,44.23
2018-09-11T18:09:02.139Z,43.56
2018-09-11T18:11:29.440Z,44.25
2018-09-11T18:13:56.697Z,44.01
2018-09-11T18:16:23.904Z,44.87
2018-09-11T18:18:51.237Z,46.06
2018-09-11T18:21:18.462Z,46.03
2018-09-11T18:23:45.815Z,45.95
2018-09-11T18:26:13.050Z,46.82
2018-09-11T18:28:40.319Z,47.39
2018-09-11T18:31:07.655Z,46.36
2018-09-11T18:33:34.943Z,46.74
2018-09-11T18:36:03.030Z,47.24
2018-09-11T18:38:30.336Z,47.36
2018-09-11T18:40:57.588Z,47.77
2018-09-11T18:43:24.872Z,48.76
2018-09-11T18:45:52.161Z,49.48
2018-09-11T18:48:19.412Z,48.92
2018-09-11T18:50:46.667Z,49.61
2018-09-11T18:53:13.970Z,48.84
2018-09-11T18:55:41.239Z,49.92
2018-09-11T18:58:08.595Z,50.35
2018-09-11T19:00:35.812Z,50.18
2018-09-11T19:03:03.093Z,51.14
2018-09-11T19:05:30.752Z,51.78
2018-09-11T19:07:58.725Z,51.28
2018-09-11T19:10:25.973Z,50.79
2018-09-11T19:12:53.328Z,52.08
2018-09-11T19:15:20.623Z,52.25
2018-09-11T19:17:47.839Z,51.74
2018-09-11T19:20:15.188Z,52.31
2018-09-11T19:22:42.428Z,53.06
2018-09-11T19:25:09.706Z,53.09
2018-09-11T19:27:36.903Z,53.11
2018-09-11T19:30:05.415Z,54.06
2018-09-11T19:32:32.638Z,53.59
2018-09-11T19:34:59.903Z,54.29
2018-09-11T19:37:27.119Z,54.83
2018-09-11T19:39:54.315Z,54.46
2018-09-11T19:42:21.596Z,54.79
2018-09-11T19:44:48.827Z,55.88
2018-09-11T19:47:16.128Z,56.03
2018-09-11T19:49:43.356Z,56.29
2018-09-11T19:52:10.536Z,56.80
2018-09-11T19:54:37.824Z,56.60
2018-09-11T19:57:05.203Z,56.51
2018-09-11T19:59:32.458Z,56.51
2018-09-11T20:01:59.669Z,56.81
2018-09-11T20:04:26.922Z,56.46
2018-09-11T20:06:54.254Z,56.71
2018-09-11T20:09:21.502Z,56.73
2018-09-11T20:11:48.751Z,56.89
2018-09-11T20:14:15.917Z,57.07
2018-09-11T20:16:43.164Z,57.38
2018-09-11T20:19:10.415Z,58.00
2018-09-11T20:21:37.704Z,58.16
2018-09-11T20:24:05.037Z,58.25
2018-09-11T20:26:32.369Z,58.58
2018-09-11T20:28:59.646Z,59.16
2018-09-11T20:31:26.820Z,59.95
2018-09-11T20:33:54.175Z,60.26
2018-09-11T20:36:21.396Z,60.34
2018-09-11T20:38:48.677Z,60.41
2018-09-11T20:41:15.918Z,60.52
2018-09-11T20:43:43.155Z,60.70
2018-09-11T20:46:10.382Z,60.32
2018-09-11T20:48:37.654Z,60.62
2018-09-11T20:51:04.876Z,60.60
2018-09-11T20:53:32.167Z,60.69
2018-09-11T20:55:59.464Z,60.51
2018-09-11T20:58:26.569Z,60.65
2018-09-11T21:00:53.718Z,61.00
2018-09-11T21:03:21.009Z,61.16
2018-09-11T21:05:48.435Z,61.38
2018-09-11T21:08:15.683Z,62.02
2018-09-11T21:10:42.871Z,62.05
2018-09-11T21:13:10.181Z,62.32
2018-09-11T21:15:37.389Z,62.65
2018-09-11T21:18:04.621Z,63.19
2018-09-11T21:20:31.875Z,63.63
2018-09-11T21:22:59.183Z,63.17
2018-09-11T21:25:26.422Z,63.76
2018-09-11T21:27:53.691Z,63.94
2018-09-11T21:30:20.928Z,64.01
2018-09-11T21:32:48.250Z,63.99
2018-09-11T21:35:15.508Z,63.66
2018-09-11T21:37:42.722Z,64.44
2018-09-11T21:40:09.982Z,63.89
2018-09-11T21:42:37.311Z,64.64
2018-09-11T21:45:04.761Z,64.59
2018-09-11T21:47:32.069Z,65.22
2018-09-11T21:49:59.367Z,65.01
2018-09-11T21:52:26.601Z,64.91
2018-09-11T21:54:53.992Z,64.79
2018-09-11T21:57:21.275Z,65.21
2018-09-11T21:59:48.572Z,65.82
2018-09-11T22:02:15.839Z,65.44
2018-09-11T22:04:43.073Z,66.21
2018-09-11T22:07:10.320Z,65.81
2018-09-11T22:09:37.565Z,65.05
2018-09-11T22:12:05.093Z,65.65
2018-09-11T22:14:32.294Z,67.14
2018-09-11T22:16:59.559Z,67.39
2018-09-11T22:19:26.835Z,67.97
2018-09-11T22:21:54.136Z,67.98
2018-09-11T22:24:21.391Z,67.66
2018-09-11T22:26:48.642Z,66.82
2018-09-11T22:29:15.836Z,67.46
2018-09-11T22:31:43.108Z,67.17
2018-09-11T22:34:10.316Z,67.59
2018-09-11T22:36:37.603Z,67.29
2018-09-11T22:39:06.357Z,67.55
2018-09-11T22:41:33.699Z,67.19
2018-09-11T22:44:00.913Z,67.76
2018-09-11T22:46:28.250Z,67.98
2018-09-11T22:48:55.467Z,68.34
2018-09-11T22:51:22.713Z,68.03
2018-09-11T22:53:49.877Z,67.87
2018-09-11T22:56:17.125Z,68.86
2018-09-11T22:58:44.387Z,69.11
2018-09-11T23:01:11.908Z,69.36
2018-09-11T23:03:39.124Z,69.10
2018-09-11T23:06:06.411Z,69.03
2018-09-11T23:08:33.637Z,68.92
2018-09-11T23:11:00.824Z,69.10
2018-09-11T23:13:28.074Z,69.37
2018-09-11T23:15:55.302Z,69.38
2018-09-11T23:18:22.552Z,69.77
2018-09-11T23:20:49.773Z,69.54
2018-09-11T23:23:17.042Z,70.71
2018-09-11T23:25:44.335Z,70.43
2018-09-11T23:28:11.576Z,70.33
2018-09-11T23:30:38.818Z,70.80
2018-09-11T23:33:06.069Z,70.65
2018-09-11T23:35:33.295Z,70.29
2018-09-11T23:38:00.576Z,70.83
2018-09-11T23:40:27.777Z,71.38
2018-09-11T23:42:55.087Z,70.61
2018-09-11T23:45:22.274Z,71.33
2018-09-11T23:47:49.532Z,70.80
2018-09-11T23:50:16.762Z,70.92
2018-09-11T23:52:44.074Z,71.05
2018-09-11T23:55:11.339Z,71.70
2018-09-11T23:57:38.544Z,71.85
